sensor_id;sensor_type;location;lat;lon;timestamp;P1;durP1;ratioP1;P2;durP2;ratioP2
10699;SDS011;5401;41.986;21.452;2023-09-08T00:00:02;9.03;;;7.03;;
10699;SDS011;5401;41.986;21.452;2023-09-08T00:02:31;10.03;;;6.63;;
10699;SDS011;5401;41.986;21.452;2023-09-08T00:04:58;13.27;;;6.73;;
10699;SDS011;5401;41.986;21.452;2023-09-08T00:07:25;9.40;;;7.10;;
10699;SDS011;5401;41.986;21.452;2023-09-08T00:09:54;8.43;;;6.60;;
10699;SDS011;5401;41.986;21.452;2023-09-08T00:12:22;10.33;;;7.40;;
10699;SDS011;5401;41.986;21.452;2023-09-08T00:14:49;11.13;;;7.70;;
10699;SDS011;5401;41.986;21.452;2023-09-08T00:17:17;9.37;;;7.30;;
10699;SDS011;5401;41.986;21.452;2023-09-08T00:19:44;11.70;;;7.40;;
10699;SDS011;5401;41.986;21.452;2023-09-08T00:22:12;10.63;;;7.37;;
10699;SDS011;5401;41.986;21.452;2023-09-08T00:24:39;15.97;;;8.60;;
10699;SDS011;5401;41.986;21.452;2023-09-08T00:27:08;12.90;;;8.10;;
10699;SDS011;5401;41.986;21.452;2023-09-08T00:29:36;10.73;;;6.53;;
10699;SDS011;5401;41.986;21.452;2023-09-08T00:32:03;15.50;;;9.17;;
10699;SDS011;5401;41.986;21.452;2023-09-08T00:34:31;14.37;;;7.00;;
10699;SDS011;5401;41.986;21.452;2023-09-08T00:36:59;13.33;;;8.53;;
10699;SDS011;5401;41.986;21.452;2023-09-08T00:39:34;17.43;;;9.47;;
10699;SDS011;5401;41.986;21.452;2023-09-08T00:42:01;9.03;;;6.37;;
10699;SDS011;5401;41.986;21.452;2023-09-08T00:44:30;10.70;;;6.80;;
10699;SDS011;5401;41.986;21.452;2023-09-08T00:46:58;9.83;;;7.43;;
10699;SDS011;5401;41.986;21.452;2023-09-08T00:49:25;9.07;;;7.00;;
10699;SDS011;5401;41.986;21.452;2023-09-08T00:51:54;6.90;;;6.10;;
10699;SDS011;5401;41.986;21.452;2023-09-08T00:54:22;7.90;;;6.73;;
10699;SDS011;5401;41.986;21.452;2023-09-08T00:56:50;8.20;;;6.47;;
10699;SDS011;5401;41.986;21.452;2023-09-08T00:59:22;8.20;;;7.40;;
10699;SDS011;5401;41.986;21.452;2023-09-08T01:01:52;9.23;;;6.90;;
10699;SDS011;5401;41.986;21.452;2023-09-08T01:04:20;9.60;;;6.50;;
10699;SDS011;5401;41.986;21.452;2023-09-08T01:06:47;8.73;;;5.93;;
10699;SDS011;5401;41.986;21.452;2023-09-08T01:09:16;8.23;;;6.80;;
10699;SDS011;5401;41.986;21.452;2023-09-08T01:11:44;14.33;;;7.83;;
10699;SDS011;5401;41.986;21.452;2023-09-08T01:14:12;9.40;;;6.63;;
10699;SDS011;5401;41.986;21.452;2023-09-08T01:16:40;8.47;;;6.70;;
10699;SDS011;5401;41.986;21.452;2023-09-08T01:19:10;9.17;;;7.30;;
10699;SDS011;5401;41.986;21.452;2023-09-08T01:21:55;12.17;;;7.40;;
10699;SDS011;5401;41.986;21.452;2023-09-08T01:25:01;10.67;;;6.70;;
10699;SDS011;5401;41.986;21.452;2023-09-08T01:27:50;7.40;;;6.60;;
10699;SDS011;5401;41.986;21.452;2023-09-08T01:30:20;7.57;;;6.70;;
10699;SDS011;5401;41.986;21.452;2023-09-08T01:32:50;8.80;;;6.43;;
10699;SDS011;5401;41.986;21.452;2023-09-08T01:35:19;10.73;;;7.17;;
10699;SDS011;5401;41.986;21.452;2023-09-08T01:37:47;10.67;;;5.87;;
10699;SDS011;5401;41.986;21.452;2023-09-08T01:40:16;8.60;;;6.53;;
10699;SDS011;5401;41.986;21.452;2023-09-08T01:42:45;10.70;;;6.53;;
10699;SDS011;5401;41.986;21.452;2023-09-08T01:45:12;8.93;;;6.37;;
10699;SDS011;5401;41.986;21.452;2023-09-08T01:47:40;6.83;;;6.17;;
10699;SDS011;5401;41.986;21.452;2023-09-08T01:50:08;10.53;;;6.70;;
10699;SDS011;5401;41.986;21.452;2023-09-08T01:52:36;9.13;;;6.27;;
10699;SDS011;5401;41.986;21.452;2023-09-08T01:55:04;8.23;;;6.33;;
10699;SDS011;5401;41.986;21.452;2023-09-08T01:57:34;8.40;;;6.67;;
10699;SDS011;5401;41.986;21.452;2023-09-08T02:00:02;13.20;;;7.00;;
10699;SDS011;5401;41.986;21.452;2023-09-08T02:02:31;7.53;;;6.13;;
10699;SDS011;5401;41.986;21.452;2023-09-08T02:04:58;11.77;;;6.50;;
10699;SDS011;5401;41.986;21.452;2023-09-08T02:07:26;7.60;;;6.27;;
10699;SDS011;5401;41.986;21.452;2023-09-08T02:09:53;7.43;;;6.63;;
10699;SDS011;5401;41.986;21.452;2023-09-08T02:12:20;7.20;;;6.50;;
10699;SDS011;5401;41.986;21.452;2023-09-08T02:14:49;7.73;;;6.47;;
10699;SDS011;5401;41.986;21.452;2023-09-08T02:17:17;8.10;;;6.53;;
10699;SDS011;5401;41.986;21.452;2023-09-08T02:19:45;9.63;;;6.60;;
10699;SDS011;5401;41.986;21.452;2023-09-08T02:22:13;6.87;;;6.27;;
10699;SDS011;5401;41.986;21.452;2023-09-08T02:24:40;9.47;;;6.70;;
10699;SDS011;5401;41.986;21.452;2023-09-08T02:27:08;10.50;;;6.97;;
10699;SDS011;5401;41.986;21.452;2023-09-08T02:29:37;12.77;;;6.67;;
10699;SDS011;5401;41.986;21.452;2023-09-08T02:32:06;9.97;;;6.43;;
10699;SDS011;5401;41.986;21.452;2023-09-08T02:34:34;10.43;;;6.77;;
10699;SDS011;5401;41.986;21.452;2023-09-08T02:37:03;7.93;;;6.30;;
10699;SDS011;5401;41.986;21.452;2023-09-08T02:39:32;8.53;;;6.17;;
10699;SDS011;5401;41.986;21.452;2023-09-08T02:41:59;9.97;;;6.37;;
10699;SDS011;5401;41.986;21.452;2023-09-08T02:44:27;9.00;;;6.50;;
10699;SDS011;5401;41.986;21.452;2023-09-08T02:46:55;8.03;;;5.93;;
10699;SDS011;5401;41.986;21.452;2023-09-08T02:49:24;10.57;;;6.53;;
10699;SDS011;5401;41.986;21.452;2023-09-08T02:51:51;9.97;;;6.60;;
10699;SDS011;5401;41.986;21.452;2023-09-08T02:54:18;7.83;;;6.20;;
10699;SDS011;5401;41.986;21.452;2023-09-08T02:56:46;8.27;;;6.20;;
10699;SDS011;5401;41.986;21.452;2023-09-08T02:59:13;7.17;;;6.47;;
10699;SDS011;5401;41.986;21.452;2023-09-08T03:01:41;8.87;;;6.20;;
10699;SDS011;5401;41.986;21.452;2023-09-08T03:04:08;7.17;;;6.43;;
10699;SDS011;5401;41.986;21.452;2023-09-08T03:06:37;11.47;;;6.47;;
10699;SDS011;5401;41.986;21.452;2023-09-08T03:09:05;8.10;;;5.83;;
10699;SDS011;5401;41.986;21.452;2023-09-08T03:11:32;9.00;;;6.07;;
10699;SDS011;5401;41.986;21.452;2023-09-08T03:14:00;7.77;;;6.30;;
10699;SDS011;5401;41.986;21.452;2023-09-08T03:16:27;9.87;;;6.30;;
10699;SDS011;5401;41.986;21.452;2023-09-08T03:18:54;7.97;;;6.63;;
10699;SDS011;5401;41.986;21.452;2023-09-08T03:21:22;7.50;;;6.80;;
10699;SDS011;5401;41.986;21.452;2023-09-08T03:23:51;11.13;;;6.77;;
10699;SDS011;5401;41.986;21.452;2023-09-08T03:26:18;11.33;;;6.60;;
10699;SDS011;5401;41.986;21.452;2023-09-08T03:28:46;8.70;;;6.50;;
10699;SDS011;5401;41.986;21.452;2023-09-08T03:31:13;8.57;;;6.80;;
10699;SDS011;5401;41.986;21.452;2023-09-08T03:33:41;14.10;;;6.47;;
10699;SDS011;5401;41.986;21.452;2023-09-08T03:36:08;15.97;;;6.93;;
10699;SDS011;5401;41.986;21.452;2023-09-08T03:38:36;11.07;;;5.80;;
10699;SDS011;5401;41.986;21.452;2023-09-08T03:41:05;6.93;;;6.10;;
10699;SDS011;5401;41.986;21.452;2023-09-08T03:43:33;7.80;;;6.77;;
10699;SDS011;5401;41.986;21.452;2023-09-08T03:46:00;8.33;;;6.17;;
10699;SDS011;5401;41.986;21.452;2023-09-08T03:48:28;8.70;;;6.37;;
10699;SDS011;5401;41.986;21.452;2023-09-08T03:50:55;10.90;;;6.47;;
10699;SDS011;5401;41.986;21.452;2023-09-08T03:53:23;9.17;;;7.20;;
10699;SDS011;5401;41.986;21.452;2023-09-08T03:55:50;10.07;;;6.37;;
10699;SDS011;5401;41.986;21.452;2023-09-08T03:58:19;6.93;;;6.27;;
10699;SDS011;5401;41.986;21.452;2023-09-08T04:00:47;11.37;;;6.87;;
10699;SDS011;5401;41.986;21.452;2023-09-08T04:03:14;8.40;;;6.50;;
10699;SDS011;5401;41.986;21.452;2023-09-08T04:05:42;7.70;;;6.57;;
10699;SDS011;5401;41.986;21.452;2023-09-08T04:08:09;10.83;;;6.70;;
10699;SDS011;5401;41.986;21.452;2023-09-08T04:10:36;7.70;;;6.40;;
10699;SDS011;5401;41.986;21.452;2023-09-08T04:13:04;7.00;;;6.30;;
10699;SDS011;5401;41.986;21.452;2023-09-08T04:15:33;9.07;;;5.60;;
10699;SDS011;5401;41.986;21.452;2023-09-08T04:18:00;10.80;;;6.63;;
10699;SDS011;5401;41.986;21.452;2023-09-08T04:20:28;7.40;;;5.67;;
10699;SDS011;5401;41.986;21.452;2023-09-08T04:22:55;7.83;;;6.93;;
10699;SDS011;5401;41.986;21.452;2023-09-08T04:25:22;9.07;;;7.07;;
10699;SDS011;5401;41.986;21.452;2023-09-08T04:27:50;9.33;;;6.77;;
10699;SDS011;5401;41.986;21.452;2023-09-08T04:30:18;12.60;;;6.80;;
10699;SDS011;5401;41.986;21.452;2023-09-08T04:32:47;10.93;;;6.40;;
10699;SDS011;5401;41.986;21.452;2023-09-08T04:35:14;10.43;;;6.43;;
10699;SDS011;5401;41.986;21.452;2023-09-08T04:37:42;9.93;;;6.40;;
10699;SDS011;5401;41.986;21.452;2023-09-08T04:40:09;7.60;;;6.80;;
10699;SDS011;5401;41.986;21.452;2023-09-08T04:42:37;8.63;;;6.37;;
10699;SDS011;5401;41.986;21.452;2023-09-08T04:45:05;7.67;;;6.00;;
10699;SDS011;5401;41.986;21.452;2023-09-08T04:47:33;9.00;;;6.23;;
10699;SDS011;5401;41.986;21.452;2023-09-08T04:50:02;7.27;;;6.57;;
10699;SDS011;5401;41.986;21.452;2023-09-08T04:52:29;8.63;;;6.50;;
10699;SDS011;5401;41.986;21.452;2023-09-08T04:54:57;10.63;;;5.97;;
10699;SDS011;5401;41.986;21.452;2023-09-08T04:57:24;7.73;;;6.83;;
10699;SDS011;5401;41.986;21.452;2023-09-08T04:59:52;6.97;;;6.33;;
10699;SDS011;5401;41.986;21.452;2023-09-08T05:02:19;10.00;;;6.20;;
10699;SDS011;5401;41.986;21.452;2023-09-08T05:04:47;11.30;;;6.80;;
10699;SDS011;5401;41.986;21.452;2023-09-08T05:07:15;7.70;;;6.77;;
10699;SDS011;5401;41.986;21.452;2023-09-08T05:09:44;8.47;;;7.60;;
10699;SDS011;5401;41.986;21.452;2023-09-08T05:12:13;7.07;;;6.37;;
10699;SDS011;5401;41.986;21.452;2023-09-08T05:14:41;11.33;;;6.67;;
10699;SDS011;5401;41.986;21.452;2023-09-08T05:17:08;13.20;;;6.80;;
10699;SDS011;5401;41.986;21.452;2023-09-08T05:19:36;10.27;;;6.40;;
10699;SDS011;5401;41.986;21.452;2023-09-08T05:22:04;13.23;;;7.00;;
10699;SDS011;5401;41.986;21.452;2023-09-08T05:24:33;14.93;;;11.33;;
10699;SDS011;5401;41.986;21.452;2023-09-08T05:27:01;16.90;;;9.17;;
10699;SDS011;5401;41.986;21.452;2023-09-08T05:29:28;9.73;;;7.40;;
10699;SDS011;5401;41.986;21.452;2023-09-08T05:31:56;11.23;;;6.77;;
10699;SDS011;5401;41.986;21.452;2023-09-08T05:34:23;10.77;;;6.63;;
10699;SDS011;5401;41.986;21.452;2023-09-08T05:36:51;9.43;;;6.57;;
10699;SDS011;5401;41.986;21.452;2023-09-08T05:39:18;8.80;;;6.77;;
10699;SDS011;5401;41.986;21.452;2023-09-08T05:41:47;9.00;;;6.00;;
10699;SDS011;5401;41.986;21.452;2023-09-08T05:44:14;6.93;;;6.27;;
10699;SDS011;5401;41.986;21.452;2023-09-08T05:46:42;7.97;;;6.43;;
10699;SDS011;5401;41.986;21.452;2023-09-08T05:49:09;8.53;;;6.47;;
10699;SDS011;5401;41.986;21.452;2023-09-08T05:51:36;10.70;;;6.50;;
10699;SDS011;5401;41.986;21.452;2023-09-08T05:54:04;7.77;;;6.10;;
10699;SDS011;5401;41.986;21.452;2023-09-08T05:56:33;11.23;;;6.53;;
10699;SDS011;5401;41.986;21.452;2023-09-08T05:59:02;7.30;;;6.30;;
10699;SDS011;5401;41.986;21.452;2023-09-08T06:01:30;13.83;;;7.23;;
10699;SDS011;5401;41.986;21.452;2023-09-08T06:03:58;7.93;;;6.90;;
10699;SDS011;5401;41.986;21.452;2023-09-08T06:06:26;13.90;;;7.83;;
10699;SDS011;5401;41.986;21.452;2023-09-08T06:08:54;10.10;;;7.73;;
10699;SDS011;5401;41.986;21.452;2023-09-08T06:11:21;11.67;;;7.30;;
10699;SDS011;5401;41.986;21.452;2023-09-08T06:13:49;11.30;;;8.43;;
10699;SDS011;5401;41.986;21.452;2023-09-08T06:16:19;10.67;;;8.50;;
10699;SDS011;5401;41.986;21.452;2023-09-08T06:18:46;13.57;;;8.57;;
10699;SDS011;5401;41.986;21.452;2023-09-08T06:21:14;9.67;;;8.67;;
10699;SDS011;5401;41.986;21.452;2023-09-08T06:23:41;11.87;;;8.83;;
10699;SDS011;5401;41.986;21.452;2023-09-08T06:26:09;13.90;;;9.37;;
10699;SDS011;5401;41.986;21.452;2023-09-08T06:28:36;14.50;;;8.70;;
10699;SDS011;5401;41.986;21.452;2023-09-08T06:31:05;10.60;;;8.53;;
10699;SDS011;5401;41.986;21.452;2023-09-08T06:33:34;13.57;;;9.60;;
10699;SDS011;5401;41.986;21.452;2023-09-08T06:36:01;16.87;;;8.37;;
10699;SDS011;5401;41.986;21.452;2023-09-08T06:38:29;13.40;;;8.83;;
10699;SDS011;5401;41.986;21.452;2023-09-08T06:40:57;8.80;;;8.00;;
10699;SDS011;5401;41.986;21.452;2023-09-08T06:43:24;11.43;;;8.13;;
10699;SDS011;5401;41.986;21.452;2023-09-08T06:45:52;10.17;;;8.43;;
10699;SDS011;5401;41.986;21.452;2023-09-08T06:48:19;16.03;;;8.20;;
10699;SDS011;5401;41.986;21.452;2023-09-08T06:50:48;15.23;;;8.70;;
10699;SDS011;5401;41.986;21.452;2023-09-08T06:53:15;12.27;;;8.10;;
10699;SDS011;5401;41.986;21.452;2023-09-08T06:55:43;10.73;;;8.03;;
10699;SDS011;5401;41.986;21.452;2023-09-08T06:58:10;9.23;;;8.23;;
10699;SDS011;5401;41.986;21.452;2023-09-08T07:00:40;11.70;;;8.63;;
10699;SDS011;5401;41.986;21.452;2023-09-08T07:03:08;11.00;;;8.87;;
10699;SDS011;5401;41.986;21.452;2023-09-08T07:05:35;11.47;;;8.00;;
10699;SDS011;5401;41.986;21.452;2023-09-08T07:08:04;10.47;;;8.73;;
10699;SDS011;5401;41.986;21.452;2023-09-08T07:10:34;11.50;;;8.77;;
10699;SDS011;5401;41.986;21.452;2023-09-08T07:13:01;10.97;;;8.23;;
10699;SDS011;5401;41.986;21.452;2023-09-08T07:15:29;12.60;;;8.93;;
10699;SDS011;5401;41.986;21.452;2023-09-08T07:17:57;14.30;;;9.40;;
10699;SDS011;5401;41.986;21.452;2023-09-08T07:20:25;9.77;;;8.77;;
10699;SDS011;5401;41.986;21.452;2023-09-08T07:22:52;13.80;;;8.40;;
10699;SDS011;5401;41.986;21.452;2023-09-08T07:25:21;13.33;;;8.57;;
10699;SDS011;5401;41.986;21.452;2023-09-08T07:27:49;18.67;;;9.20;;
10699;SDS011;5401;41.986;21.452;2023-09-08T07:30:19;13.30;;;8.97;;
10699;SDS011;5401;41.986;21.452;2023-09-08T07:32:47;13.87;;;9.03;;
10699;SDS011;5401;41.986;21.452;2023-09-08T07:35:14;13.30;;;8.93;;
10699;SDS011;5401;41.986;21.452;2023-09-08T07:37:42;13.93;;;9.00;;
10699;SDS011;5401;41.986;21.452;2023-09-08T07:40:10;16.50;;;8.70;;
10699;SDS011;5401;41.986;21.452;2023-09-08T07:42:39;15.50;;;8.50;;
10699;SDS011;5401;41.986;21.452;2023-09-08T07:45:07;11.37;;;8.67;;
10699;SDS011;5401;41.986;21.452;2023-09-08T07:47:36;13.93;;;8.93;;
10699;SDS011;5401;41.986;21.452;2023-09-08T07:50:16;11.07;;;8.37;;
10699;SDS011;5401;41.986;21.452;2023-09-08T07:52:51;17.03;;;9.20;;
10699;SDS011;5401;41.986;21.452;2023-09-08T07:55:20;16.60;;;8.17;;
10699;SDS011;5401;41.986;21.452;2023-09-08T07:57:50;22.00;;;12.13;;
10699;SDS011;5401;41.986;21.452;2023-09-08T08:00:18;17.83;;;9.33;;
10699;SDS011;5401;41.986;21.452;2023-09-08T08:02:46;19.23;;;8.87;;
10699;SDS011;5401;41.986;21.452;2023-09-08T08:05:15;13.13;;;9.00;;
10699;SDS011;5401;41.986;21.452;2023-09-08T08:07:42;20.43;;;9.27;;
10699;SDS011;5401;41.986;21.452;2023-09-08T08:10:11;20.03;;;8.43;;
10699;SDS011;5401;41.986;21.452;2023-09-08T08:12:39;19.20;;;10.30;;
10699;SDS011;5401;41.986;21.452;2023-09-08T08:15:09;15.67;;;8.60;;
10699;SDS011;5401;41.986;21.452;2023-09-08T08:17:37;21.20;;;9.93;;
10699;SDS011;5401;41.986;21.452;2023-09-08T08:20:06;12.93;;;8.67;;
10699;SDS011;5401;41.986;21.452;2023-09-08T08:22:35;24.70;;;22.50;;
10699;SDS011;5401;41.986;21.452;2023-09-08T08:25:03;18.10;;;13.37;;
10699;SDS011;5401;41.986;21.452;2023-09-08T08:27:31;23.63;;;17.00;;
10699;SDS011;5401;41.986;21.452;2023-09-08T08:29:59;18.17;;;16.60;;
10699;SDS011;5401;41.986;21.452;2023-09-08T08:32:28;42.97;;;22.73;;
10699;SDS011;5401;41.986;21.452;2023-09-08T08:34:56;19.27;;;17.60;;
10699;SDS011;5401;41.986;21.452;2023-09-08T08:37:24;29.57;;;26.17;;
10699;SDS011;5401;41.986;21.452;2023-09-08T08:39:52;37.50;;;28.20;;
10699;SDS011;5401;41.986;21.452;2023-09-08T08:42:20;37.80;;;30.10;;
10699;SDS011;5401;41.986;21.452;2023-09-08T08:44:48;32.20;;;28.80;;
10699;SDS011;5401;41.986;21.452;2023-09-08T08:47:17;31.00;;;28.10;;
10699;SDS011;5401;41.986;21.452;2023-09-08T08:49:47;47.33;;;32.23;;
10699;SDS011;5401;41.986;21.452;2023-09-08T08:52:16;33.47;;;30.27;;
10699;SDS011;5401;41.986;21.452;2023-09-08T08:54:45;31.40;;;28.37;;
10699;SDS011;5401;41.986;21.452;2023-09-08T08:57:12;38.00;;;27.47;;
10699;SDS011;5401;41.986;21.452;2023-09-08T08:59:41;27.03;;;24.33;;
10699;SDS011;5401;41.986;21.452;2023-09-08T09:02:09;31.00;;;27.10;;
10699;SDS011;5401;41.986;21.452;2023-09-08T09:04:40;51.90;;;31.23;;
10699;SDS011;5401;41.986;21.452;2023-09-08T09:07:09;25.07;;;22.93;;
10699;SDS011;5401;41.986;21.452;2023-09-08T09:09:38;25.60;;;23.33;;
10699;SDS011;5401;41.986;21.452;2023-09-08T09:12:06;36.60;;;27.53;;
10699;SDS011;5401;41.986;21.452;2023-09-08T09:14:34;29.27;;;26.30;;
10699;SDS011;5401;41.986;21.452;2023-09-08T09:17:02;24.77;;;22.40;;
10699;SDS011;5401;41.986;21.452;2023-09-08T09:19:30;39.07;;;26.20;;
10699;SDS011;5401;41.986;21.452;2023-09-08T09:21:59;25.43;;;22.93;;
10699;SDS011;5401;41.986;21.452;2023-09-08T09:24:31;23.67;;;21.43;;
10699;SDS011;5401;41.986;21.452;2023-09-08T09:27:00;39.43;;;22.30;;
10699;SDS011;5401;41.986;21.452;2023-09-08T09:29:30;23.60;;;21.73;;
10699;SDS011;5401;41.986;21.452;2023-09-08T09:32:02;21.67;;;19.83;;
10699;SDS011;5401;41.986;21.452;2023-09-08T09:34:31;30.07;;;19.23;;
10699;SDS011;5401;41.986;21.452;2023-09-08T09:36:59;17.40;;;7.70;;
10699;SDS011;5401;41.986;21.452;2023-09-08T09:39:26;18.40;;;10.23;;
10699;SDS011;5401;41.986;21.452;2023-09-08T09:41:56;24.67;;;22.70;;
10699;SDS011;5401;41.986;21.452;2023-09-08T09:44:24;22.10;;;20.37;;
10699;SDS011;5401;41.986;21.452;2023-09-08T09:46:53;22.07;;;20.50;;
10699;SDS011;5401;41.986;21.452;2023-09-08T09:49:21;22.07;;;20.33;;
10699;SDS011;5401;41.986;21.452;2023-09-08T09:51:49;24.43;;;22.13;;
10699;SDS011;5401;41.986;21.452;2023-09-08T09:54:20;18.50;;;7.00;;
10699;SDS011;5401;41.986;21.452;2023-09-08T09:56:47;12.23;;;6.30;;
10699;SDS011;5401;41.986;21.452;2023-09-08T09:59:18;12.27;;;8.00;;
10699;SDS011;5401;41.986;21.452;2023-09-08T10:01:47;9.83;;;6.53;;
10699;SDS011;5401;41.986;21.452;2023-09-08T10:04:14;9.07;;;6.13;;
10699;SDS011;5401;41.986;21.452;2023-09-08T10:06:42;13.23;;;8.23;;
10699;SDS011;5401;41.986;21.452;2023-09-08T10:09:11;8.60;;;5.53;;
10699;SDS011;5401;41.986;21.452;2023-09-08T10:11:42;12.50;;;6.43;;
10699;SDS011;5401;41.986;21.452;2023-09-08T10:14:14;30.27;;;10.43;;
10699;SDS011;5401;41.986;21.452;2023-09-08T10:16:44;8.90;;;5.70;;
10699;SDS011;5401;41.986;21.452;2023-09-08T10:19:15;12.53;;;6.93;;
10699;SDS011;5401;41.986;21.452;2023-09-08T10:21:45;26.77;;;10.80;;
10699;SDS011;5401;41.986;21.452;2023-09-08T10:24:14;22.97;;;8.40;;
10699;SDS011;5401;41.986;21.452;2023-09-08T10:26:44;22.27;;;8.03;;
10699;SDS011;5401;41.986;21.452;2023-09-08T10:29:13;25.53;;;12.73;;
10699;SDS011;5401;41.986;21.452;2023-09-08T10:31:42;18.23;;;10.67;;
10699;SDS011;5401;41.986;21.452;2023-09-08T10:34:12;13.33;;;10.07;;
10699;SDS011;5401;41.986;21.452;2023-09-08T10:36:40;27.27;;;13.33;;
10699;SDS011;5401;41.986;21.452;2023-09-08T10:42:19;25.80;;;12.40;;
10699;SDS011;5401;41.986;21.452;2023-09-08T10:45:00;10.07;;;7.73;;
10699;SDS011;5401;41.986;21.452;2023-09-08T10:47:32;25.20;;;12.13;;
10699;SDS011;5401;41.986;21.452;2023-09-08T10:50:07;14.17;;;10.97;;
10699;SDS011;5401;41.986;21.452;2023-09-08T10:52:42;31.93;;;14.07;;
10699;SDS011;5401;41.986;21.452;2023-09-08T10:55:10;17.47;;;9.77;;
10699;SDS011;5401;41.986;21.452;2023-09-08T10:57:38;11.13;;;8.50;;
10699;SDS011;5401;41.986;21.452;2023-09-08T11:00:12;18.87;;;14.83;;
10699;SDS011;5401;41.986;21.452;2023-09-08T11:02:49;13.07;;;7.57;;
10699;SDS011;5401;41.986;21.452;2023-09-08T11:05:17;11.60;;;6.63;;
10699;SDS011;5401;41.986;21.452;2023-09-08T11:07:47;24.27;;;13.63;;
10699;SDS011;5401;41.986;21.452;2023-09-08T11:10:16;14.20;;;6.70;;
10699;SDS011;5401;41.986;21.452;2023-09-08T11:12:43;12.13;;;6.40;;
10699;SDS011;5401;41.986;21.452;2023-09-08T11:15:11;33.90;;;12.30;;
10699;SDS011;5401;41.986;21.452;2023-09-08T11:17:38;22.50;;;16.90;;
10699;SDS011;5401;41.986;21.452;2023-09-08T11:20:09;23.63;;;21.33;;
10699;SDS011;5401;41.986;21.452;2023-09-08T11:22:38;37.37;;;20.70;;
10699;SDS011;5401;41.986;21.452;2023-09-08T11:25:07;26.60;;;18.70;;
10699;SDS011;5401;41.986;21.452;2023-09-08T11:27:36;26.60;;;19.07;;
10699;SDS011;5401;41.986;21.452;2023-09-08T11:30:05;33.53;;;20.63;;
10699;SDS011;5401;41.986;21.452;2023-09-08T11:32:35;26.50;;;24.10;;
10699;SDS011;5401;41.986;21.452;2023-09-08T11:35:03;17.70;;;15.93;;
10699;SDS011;5401;41.986;21.452;2023-09-08T11:37:36;36.43;;;20.73;;
10699;SDS011;5401;41.986;21.452;2023-09-08T11:40:05;24.87;;;22.77;;
10699;SDS011;5401;41.986;21.452;2023-09-08T11:42:38;24.13;;;16.27;;
10699;SDS011;5401;41.986;21.452;2023-09-08T11:45:10;56.47;;;24.53;;
10699;SDS011;5401;41.986;21.452;2023-09-08T11:47:41;23.87;;;21.37;;
10699;SDS011;5401;41.986;21.452;2023-09-08T11:50:09;16.83;;;14.87;;
10699;SDS011;5401;41.986;21.452;2023-09-08T11:52:47;34.80;;;23.20;;
10699;SDS011;5401;41.986;21.452;2023-09-08T11:55:19;21.37;;;19.63;;
10699;SDS011;5401;41.986;21.452;2023-09-08T11:57:48;19.00;;;15.70;;
10699;SDS011;5401;41.986;21.452;2023-09-08T12:00:17;26.03;;;18.80;;
10699;SDS011;5401;41.986;21.452;2023-09-08T12:02:49;20.37;;;18.70;;
10699;SDS011;5401;41.986;21.452;2023-09-08T12:05:23;16.37;;;14.80;;
10699;SDS011;5401;41.986;21.452;2023-09-08T12:07:54;15.33;;;13.03;;
10699;SDS011;5401;41.986;21.452;2023-09-08T12:10:25;22.23;;;20.50;;
10699;SDS011;5401;41.986;21.452;2023-09-08T12:12:53;24.83;;;22.17;;
10699;SDS011;5401;41.986;21.452;2023-09-08T12:15:32;19.63;;;17.57;;
10699;SDS011;5401;41.986;21.452;2023-09-08T12:18:02;18.40;;;16.90;;
10699;SDS011;5401;41.986;21.452;2023-09-08T12:20:36;19.63;;;17.80;;
10699;SDS011;5401;41.986;21.452;2023-09-08T12:23:06;21.90;;;19.97;;
10699;SDS011;5401;41.986;21.452;2023-09-08T12:25:46;32.83;;;24.50;;
10699;SDS011;5401;41.986;21.452;2023-09-08T12:28:15;22.10;;;19.67;;
10699;SDS011;5401;41.986;21.452;2023-09-08T12:30:44;21.20;;;19.23;;
10699;SDS011;5401;41.986;21.452;2023-09-08T12:33:12;26.53;;;22.17;;
10699;SDS011;5401;41.986;21.452;2023-09-08T12:35:42;23.30;;;16.43;;
10699;SDS011;5401;41.986;21.452;2023-09-08T12:38:11;20.37;;;18.17;;
10699;SDS011;5401;41.986;21.452;2023-09-08T12:40:40;42.33;;;28.30;;
10699;SDS011;5401;41.986;21.452;2023-09-08T12:43:07;25.50;;;23.00;;
10699;SDS011;5401;41.986;21.452;2023-09-08T12:45:35;24.77;;;22.20;;
10699;SDS011;5401;41.986;21.452;2023-09-08T12:48:04;20.97;;;18.80;;
10699;SDS011;5401;41.986;21.452;2023-09-08T12:50:32;25.97;;;20.07;;
10699;SDS011;5401;41.986;21.452;2023-09-08T12:53:00;18.37;;;16.53;;
10699;SDS011;5401;41.986;21.452;2023-09-08T12:55:28;18.30;;;16.57;;
10699;SDS011;5401;41.986;21.452;2023-09-08T12:57:56;30.37;;;21.67;;
10699;SDS011;5401;41.986;21.452;2023-09-08T13:00:23;21.37;;;19.47;;
10699;SDS011;5401;41.986;21.452;2023-09-08T13:02:51;15.43;;;14.03;;
10699;SDS011;5401;41.986;21.452;2023-09-08T13:05:18;21.30;;;19.07;;
10699;SDS011;5401;41.986;21.452;2023-09-08T13:07:46;14.00;;;12.77;;
10699;SDS011;5401;41.986;21.452;2023-09-08T13:10:13;10.23;;;9.13;;
10699;SDS011;5401;41.986;21.452;2023-09-08T13:12:45;11.83;;;10.63;;
10699;SDS011;5401;41.986;21.452;2023-09-08T13:15:14;16.40;;;14.83;;
10699;SDS011;5401;41.986;21.452;2023-09-08T13:17:41;18.13;;;13.73;;
10699;SDS011;5401;41.986;21.452;2023-09-08T13:20:09;17.87;;;16.37;;
10699;SDS011;5401;41.986;21.452;2023-09-08T13:22:38;22.33;;;20.30;;
10699;SDS011;5401;41.986;21.452;2023-09-08T13:25:06;19.30;;;17.57;;
10699;SDS011;5401;41.986;21.452;2023-09-08T13:27:34;15.03;;;13.63;;
10699;SDS011;5401;41.986;21.452;2023-09-08T13:30:10;27.70;;;14.80;;
10699;SDS011;5401;41.986;21.452;2023-09-08T13:32:39;19.73;;;17.90;;
10699;SDS011;5401;41.986;21.452;2023-09-08T13:35:07;11.93;;;9.53;;
10699;SDS011;5401;41.986;21.452;2023-09-08T13:37:34;22.53;;;15.20;;
10699;SDS011;5401;41.986;21.452;2023-09-08T13:40:03;13.80;;;12.53;;
10699;SDS011;5401;41.986;21.452;2023-09-08T13:42:31;14.57;;;13.47;;
10699;SDS011;5401;41.986;21.452;2023-09-08T13:44:59;18.03;;;9.73;;
10699;SDS011;5401;41.986;21.452;2023-09-08T13:47:28;17.60;;;9.97;;
10699;SDS011;5401;41.986;21.452;2023-09-08T13:49:55;12.30;;;5.70;;
10699;SDS011;5401;41.986;21.452;2023-09-08T13:52:23;24.17;;;16.13;;
10699;SDS011;5401;41.986;21.452;2023-09-08T13:54:50;13.17;;;9.27;;
10699;SDS011;5401;41.986;21.452;2023-09-08T13:57:17;16.43;;;10.43;;
10699;SDS011;5401;41.986;21.452;2023-09-08T13:59:46;12.50;;;11.37;;
10699;SDS011;5401;41.986;21.452;2023-09-08T14:02:14;18.80;;;12.57;;
10699;SDS011;5401;41.986;21.452;2023-09-08T14:04:42;16.30;;;12.83;;
10699;SDS011;5401;41.986;21.452;2023-09-08T14:07:11;18.13;;;16.27;;
10699;SDS011;5401;41.986;21.452;2023-09-08T14:09:39;15.17;;;13.10;;
10699;SDS011;5401;41.986;21.452;2023-09-08T14:12:07;12.10;;;11.07;;
10699;SDS011;5401;41.986;21.452;2023-09-08T14:14:35;17.63;;;16.33;;
10699;SDS011;5401;41.986;21.452;2023-09-08T14:17:02;18.73;;;13.63;;
10699;SDS011;5401;41.986;21.452;2023-09-08T14:19:30;9.17;;;8.27;;
10699;SDS011;5401;41.986;21.452;2023-09-08T14:21:59;15.20;;;11.30;;
10699;SDS011;5401;41.986;21.452;2023-09-08T14:24:26;17.83;;;10.57;;
10699;SDS011;5401;41.986;21.452;2023-09-08T14:26:54;13.30;;;11.57;;
10699;SDS011;5401;41.986;21.452;2023-09-08T14:29:21;15.67;;;6.00;;
10699;SDS011;5401;41.986;21.452;2023-09-08T14:31:49;8.80;;;6.03;;
10699;SDS011;5401;41.986;21.452;2023-09-08T14:34:17;22.47;;;9.77;;
10699;SDS011;5401;41.986;21.452;2023-09-08T14:36:44;12.10;;;6.30;;
10699;SDS011;5401;41.986;21.452;2023-09-08T14:39:13;12.27;;;6.03;;
10699;SDS011;5401;41.986;21.452;2023-09-08T14:41:40;24.90;;;12.37;;
10699;SDS011;5401;41.986;21.452;2023-09-08T14:44:08;10.07;;;5.30;;